OIMS

Details ICAO OIMS (AFZ)
Name SABZEVAR NATIONAL
Region Iran
Timezone Asia/Tehran (UTC+4.5)
Plans Departing 4
Arriving 2
Stats Elevation 3,010 ft / 917 m (AMSL)
Location 36.168083° 57.595183°
Runways 1
Magnetic Variation 4.477° E
Sunrise 2018-05-21 01:00:51 UTC / 2018-05-21 05:30:51 Local
Sunset 2018-05-21 15:14:24 UTC / 2018-05-21 19:44:24 Local
Advertisement - Login to hide

Runways

ID Width Length Bearing (true) Bearing (mag) Surface Threshold Offset Overrun Length
09 148 ft / 45 m 10,407 ft / 3,172 m 94.77° 90.29° Asphalt 0 ft / 0 m 0 ft / 0 m
27 148 ft / 45 m 10,407 ft / 3,172 m 274.79° 270.31° Asphalt 0 ft / 0 m 0 ft / 0 m

Map

Weather


0- 5 10 15 20 25 30 35+ Temperature / ° C

Clouds and Precipitation
Forecast for 2018-05-21 12:00 UTC. Updated 17 minutes ago

Ground ~20,000 ft ~40,000 ft Winds

METAR

OIMS 211100Z 00000KT 9999 FEW035 29/M02 Q1019

TAF

Not found

Frequencies

Tower 121.90 MHz INFO
Tower 118.15 MHz INFO
Warning: Do not use this data for real-world aviation or navigation. No guarantee of current accuracy is given.